createdAt,value
2018-12-23T00:01:50.943Z,9.00
2018-12-23T00:03:55.520Z,9.00
2018-12-23T00:06:00.116Z,8.90
2018-12-23T00:08:04.713Z,9.00
2018-12-23T00:10:09.260Z,9.00
2018-12-23T00:12:13.843Z,9.00
2018-12-23T00:14:18.394Z,9.00
2018-12-23T00:16:22.922Z,9.00
2018-12-23T00:18:27.565Z,9.00
2018-12-23T00:20:32.196Z,9.00
2018-12-23T00:22:36.709Z,9.00
2018-12-23T00:24:41.423Z,9.00
2018-12-23T00:26:46.059Z,9.00
2018-12-23T00:28:50.614Z,9.00
2018-12-23T00:30:55.162Z,9.00
2018-12-23T00:32:59.639Z,9.00
2018-12-23T00:35:04.200Z,9.00
2018-12-23T00:37:08.824Z,9.10
2018-12-23T00:39:13.328Z,9.10
2018-12-23T00:41:17.919Z,9.10
2018-12-23T00:43:22.398Z,9.10
2018-12-23T00:45:26.867Z,9.10
2018-12-23T00:47:31.410Z,9.10
2018-12-23T00:49:35.972Z,9.10
2018-12-23T00:51:40.615Z,9.10
2018-12-23T00:53:45.213Z,9.10
2018-12-23T00:55:49.771Z,9.10
2018-12-23T00:57:54.444Z,9.10
2018-12-23T00:59:59.089Z,9.10
2018-12-23T01:02:03.634Z,9.10
2018-12-23T01:04:08.142Z,9.10
2018-12-23T01:06:12.707Z,9.10
2018-12-23T01:08:17.295Z,9.10
2018-12-23T01:10:21.810Z,9.10
2018-12-23T01:12:26.269Z,9.10
2018-12-23T01:14:31.121Z,9.20
2018-12-23T01:16:35.682Z,9.20
2018-12-23T01:18:40.246Z,9.10
2018-12-23T01:20:44.733Z,9.10
2018-12-23T01:22:49.185Z,9.10
2018-12-23T01:24:53.683Z,9.10
2018-12-23T01:26:58.254Z,9.10
2018-12-23T01:29:02.798Z,9.20
2018-12-23T01:31:07.247Z,9.20
2018-12-23T01:33:11.792Z,9.20
2018-12-23T01:35:16.393Z,9.20
2018-12-23T01:37:20.922Z,9.20
2018-12-23T01:39:25.513Z,9.20
2018-12-23T01:41:30.027Z,9.10
2018-12-23T01:43:34.574Z,9.20
2018-12-23T01:45:39.099Z,9.10
2018-12-23T01:47:43.797Z,9.10
2018-12-23T01:49:48.329Z,9.10
2018-12-23T01:51:52.855Z,9.10
2018-12-23T01:53:57.489Z,9.10
2018-12-23T01:56:02.076Z,9.10
2018-12-23T01:58:07.236Z,9.10
2018-12-23T02:00:11.872Z,9.20
2018-12-23T02:02:16.470Z,9.20
2018-12-23T02:04:21.012Z,9.10
2018-12-23T02:06:25.572Z,9.10
2018-12-23T02:08:30.108Z,9.10
2018-12-23T02:10:34.667Z,9.10
2018-12-23T02:12:39.223Z,9.10
2018-12-23T02:14:43.790Z,9.20
2018-12-23T02:16:48.387Z,9.10
2018-12-23T02:18:52.951Z,9.10
2018-12-23T02:20:57.577Z,9.20
2018-12-23T02:23:02.088Z,9.10
2018-12-23T02:25:06.774Z,9.10
2018-12-23T02:27:11.250Z,8.80
2018-12-23T02:29:16.090Z,9.10
2018-12-23T02:31:20.626Z,9.10
2018-12-23T02:33:25.180Z,9.10
2018-12-23T02:35:29.698Z,9.10
2018-12-23T02:37:34.224Z,9.10
2018-12-23T02:39:38.714Z,9.10
2018-12-23T02:41:43.336Z,9.10
2018-12-23T02:43:47.930Z,9.10
2018-12-23T02:45:52.387Z,9.00
2018-12-23T02:47:56.888Z,9.10
2018-12-23T02:50:01.414Z,9.10
2018-12-23T02:52:05.954Z,9.10
2018-12-23T02:54:10.489Z,9.10
2018-12-23T02:56:15.084Z,9.10
2018-12-23T02:58:19.575Z,9.10
2018-12-23T03:00:24.082Z,9.10
2018-12-23T03:02:28.536Z,9.10
2018-12-23T03:04:33.162Z,9.20
2018-12-23T03:06:37.754Z,9.20
2018-12-23T03:08:42.300Z,9.20
2018-12-23T03:10:46.987Z,9.10
2018-12-23T03:12:51.444Z,9.10
2018-12-23T03:14:55.944Z,9.10
2018-12-23T03:17:00.481Z,9.10
2018-12-23T03:19:04.986Z,9.10
2018-12-23T03:21:09.528Z,9.10
2018-12-23T03:23:14.004Z,9.20
2018-12-23T03:25:18.583Z,9.10
2018-12-23T03:27:23.049Z,9.10
2018-12-23T03:29:27.539Z,9.10
2018-12-23T03:31:32.141Z,9.10
2018-12-23T03:33:36.663Z,9.10
2018-12-23T03:35:41.164Z,9.10
2018-12-23T03:37:45.768Z,9.10
2018-12-23T03:39:50.259Z,9.10
2018-12-23T03:41:54.771Z,9.10
2018-12-23T03:43:59.320Z,9.00
2018-12-23T03:46:03.810Z,9.00
2018-12-23T03:48:08.333Z,9.00
2018-12-23T03:50:12.819Z,9.00
2018-12-23T03:52:17.490Z,9.00
2018-12-23T03:54:22.041Z,9.00
2018-12-23T03:56:26.596Z,9.00
2018-12-23T03:58:31.260Z,9.00
2018-12-23T04:00:35.750Z,9.00
2018-12-23T04:02:40.216Z,8.90
2018-12-23T04:04:44.763Z,8.90
2018-12-23T04:06:49.355Z,9.00
2018-12-23T04:08:53.722Z,9.00
2018-12-23T04:10:58.196Z,9.00
2018-12-23T04:13:02.714Z,8.90
2018-12-23T04:15:07.334Z,9.00
2018-12-23T04:17:11.875Z,8.90
2018-12-23T04:19:16.465Z,8.90
2018-12-23T04:21:20.976Z,8.90
2018-12-23T04:23:25.430Z,8.90
2018-12-23T04:25:29.919Z,8.90
2018-12-23T04:27:34.474Z,8.90
2018-12-23T04:29:39.007Z,8.90
2018-12-23T04:31:43.473Z,8.90
2018-12-23T04:33:47.991Z,8.90
2018-12-23T04:35:52.535Z,8.90
2018-12-23T04:37:57.073Z,8.90
2018-12-23T04:40:01.602Z,8.90
2018-12-23T04:42:06.204Z,8.90
2018-12-23T04:44:10.752Z,8.80
2018-12-23T04:46:15.249Z,8.90
2018-12-23T04:48:19.857Z,8.80
2018-12-23T04:50:24.390Z,8.80
2018-12-23T04:52:28.864Z,8.90
2018-12-23T04:54:33.414Z,8.90
2018-12-23T04:56:37.912Z,8.80
2018-12-23T04:58:42.382Z,8.80
2018-12-23T05:00:46.975Z,8.90
2018-12-23T05:02:51.598Z,8.90
2018-12-23T05:04:56.103Z,8.90
2018-12-23T05:07:00.591Z,8.90
2018-12-23T05:09:06.154Z,8.90
2018-12-23T05:11:10.713Z,8.90
2018-12-23T05:13:15.276Z,8.90
2018-12-23T05:15:19.798Z,8.90
2018-12-23T05:17:24.290Z,8.90
2018-12-23T05:19:28.777Z,8.90
2018-12-23T05:21:33.241Z,8.90
2018-12-23T05:23:38.064Z,8.90
2018-12-23T05:25:42.670Z,8.90
2018-12-23T05:27:47.217Z,8.90
2018-12-23T05:29:51.841Z,8.90
2018-12-23T05:31:56.733Z,8.90
2018-12-23T05:34:01.166Z,9.00
2018-12-23T05:36:05.657Z,9.00
2018-12-23T05:38:10.339Z,8.90
2018-12-23T05:40:14.719Z,8.90
2018-12-23T05:42:19.210Z,8.90
2018-12-23T05:44:23.739Z,8.90
2018-12-23T05:46:28.287Z,8.90
2018-12-23T05:48:32.811Z,9.00
2018-12-23T05:50:37.350Z,9.00
2018-12-23T05:52:41.869Z,9.00
2018-12-23T05:54:46.427Z,9.00
2018-12-23T05:56:51.066Z,9.00
2018-12-23T05:58:55.572Z,9.00
2018-12-23T06:01:00.038Z,9.00
2018-12-23T06:03:04.637Z,9.10
2018-12-23T06:05:09.149Z,9.10
2018-12-23T06:07:13.586Z,9.00
2018-12-23T06:09:18.112Z,9.00
2018-12-23T06:11:22.724Z,9.10
2018-12-23T06:13:27.236Z,9.00
2018-12-23T06:15:31.805Z,9.00
2018-12-23T06:17:36.364Z,9.00
2018-12-23T06:19:40.920Z,9.10
2018-12-23T06:21:45.431Z,9.10
2018-12-23T06:23:49.966Z,9.10
2018-12-23T06:25:55.204Z,9.00
2018-12-23T06:27:59.703Z,9.10
2018-12-23T06:30:04.428Z,9.10
2018-12-23T06:32:08.921Z,9.10
2018-12-23T06:34:13.537Z,9.10
2018-12-23T06:36:18.035Z,9.20
2018-12-23T06:38:22.656Z,9.10
2018-12-23T06:40:27.255Z,9.10
2018-12-23T06:42:31.732Z,9.10
2018-12-23T06:44:36.271Z,9.10
2018-12-23T06:46:40.824Z,9.10
2018-12-23T06:48:45.334Z,9.10
2018-12-23T06:50:50.005Z,9.10
2018-12-23T06:52:54.679Z,9.10
2018-12-23T06:54:59.178Z,9.10
2018-12-23T06:57:03.759Z,9.10
2018-12-23T06:59:08.361Z,9.10
2018-12-23T07:01:12.903Z,9.10
2018-12-23T07:03:17.318Z,9.00
2018-12-23T07:05:21.832Z,9.10
2018-12-23T07:07:26.510Z,9.10
2018-12-23T07:09:31.082Z,9.10
2018-12-23T07:11:35.673Z,9.10
2018-12-23T07:13:40.336Z,9.10
2018-12-23T07:15:44.841Z,9.10
2018-12-23T07:17:49.376Z,9.10
2018-12-23T07:19:53.911Z,9.10
2018-12-23T07:21:58.449Z,9.10
2018-12-23T07:24:02.962Z,9.20
2018-12-23T07:26:07.401Z,9.10
2018-12-23T07:28:12.946Z,9.10
2018-12-23T07:30:17.428Z,9.10
2018-12-23T07:32:21.964Z,9.20
2018-12-23T07:34:26.529Z,9.10
2018-12-23T07:36:31.070Z,9.10
2018-12-23T07:38:35.927Z,9.20
2018-12-23T07:40:40.703Z,9.20
2018-12-23T07:42:45.247Z,9.20
2018-12-23T07:44:50.759Z,9.20
2018-12-23T07:46:56.271Z,9.20
2018-12-23T07:49:00.950Z,9.20
2018-12-23T07:51:05.714Z,9.20
2018-12-23T07:53:10.427Z,9.20
2018-12-23T07:55:15.273Z,9.20
2018-12-23T07:57:19.792Z,9.20
2018-12-23T07:59:24.325Z,9.20
2018-12-23T08:01:28.906Z,9.20
2018-12-23T08:03:33.493Z,9.20
2018-12-23T08:05:38.062Z,9.20
2018-12-23T08:07:42.561Z,9.20
2018-12-23T08:09:47.059Z,9.20
2018-12-23T08:11:51.548Z,9.20
2018-12-23T08:13:56.192Z,9.20
2018-12-23T08:16:00.783Z,9.20
2018-12-23T08:18:05.898Z,9.20
2018-12-23T08:20:09.980Z,9.30
2018-12-23T08:22:14.612Z,9.30
2018-12-23T08:24:19.199Z,9.30
2018-12-23T08:26:23.718Z,9.30
2018-12-23T08:28:28.265Z,9.30
2018-12-23T08:30:32.792Z,9.30
2018-12-23T08:32:37.291Z,9.30
2018-12-23T08:34:41.857Z,9.30
2018-12-23T08:36:46.445Z,9.30
2018-12-23T08:38:50.922Z,9.30
2018-12-23T08:40:55.418Z,9.30
2018-12-23T08:43:00.032Z,9.30
2018-12-23T08:45:06.355Z,9.30
2018-12-23T08:47:10.954Z,9.30
2018-12-23T08:49:16.008Z,9.40
2018-12-23T08:51:20.544Z,9.40
2018-12-23T08:53:25.095Z,9.40
2018-12-23T08:55:29.568Z,9.40
2018-12-23T08:57:35.404Z,9.40
2018-12-23T08:59:38.592Z,9.40
2018-12-23T09:01:43.895Z,9.40
2018-12-23T09:03:48.599Z,9.40
2018-12-23T09:05:53.717Z,9.40
2018-12-23T09:07:58.257Z,9.40
2018-12-23T09:10:02.726Z,9.50
2018-12-23T09:12:07.299Z,9.50
2018-12-23T09:14:11.864Z,9.50
2018-12-23T09:16:18.026Z,9.50
2018-12-23T09:18:21.037Z,9.50
2018-12-23T09:20:25.548Z,9.50
2018-12-23T09:22:30.072Z,9.50
2018-12-23T09:24:34.508Z,9.50
2018-12-23T09:26:39.191Z,9.60
2018-12-23T09:28:43.697Z,9.50
2018-12-23T09:30:48.153Z,9.60
2018-12-23T09:32:52.672Z,9.60
2018-12-23T09:34:57.211Z,9.60
2018-12-23T09:37:01.791Z,9.60
2018-12-23T09:39:07.482Z,9.70
2018-12-23T09:41:12.071Z,9.70
2018-12-23T09:43:16.553Z,9.80
2018-12-23T09:45:21.125Z,9.80
2018-12-23T09:47:28.938Z,9.70
2018-12-23T09:49:33.669Z,9.80
2018-12-23T09:51:38.119Z,9.80
2018-12-23T09:53:46.208Z,9.80
2018-12-23T09:55:50.764Z,9.80
2018-12-23T09:57:55.209Z,9.90
2018-12-23T09:59:59.788Z,9.90
2018-12-23T10:02:04.409Z,9.90
2018-12-23T10:04:08.928Z,9.90
2018-12-23T10:06:13.476Z,10.00
2018-12-23T10:08:18.220Z,10.00
2018-12-23T10:10:28.368Z,10.00
2018-12-23T10:12:32.699Z,10.00
2018-12-23T10:14:37.360Z,10.00
2018-12-23T10:16:41.911Z,10.10
2018-12-23T10:18:46.542Z,10.10
2018-12-23T10:21:04.726Z,10.10
2018-12-23T10:23:09.314Z,10.20
2018-12-23T10:25:14.003Z,10.10
2018-12-23T10:27:18.693Z,10.20
2018-12-23T10:29:23.207Z,10.10
2018-12-23T10:31:27.817Z,10.10
2018-12-23T10:33:32.311Z,10.20
2018-12-23T10:35:36.852Z,10.20
2018-12-23T10:37:41.372Z,10.20
2018-12-23T10:39:45.997Z,10.20
2018-12-23T10:41:50.590Z,10.20
2018-12-23T10:43:55.114Z,10.20
2018-12-23T10:45:59.755Z,10.20
2018-12-23T10:48:10.168Z,10.20
2018-12-23T10:50:14.718Z,10.20
2018-12-23T10:52:19.456Z,10.20
2018-12-23T10:54:24.811Z,10.20
2018-12-23T10:56:29.428Z,10.20
2018-12-23T10:58:34.118Z,10.30
2018-12-23T11:00:38.839Z,10.30
2018-12-23T11:02:43.433Z,10.20
2018-12-23T11:04:48.044Z,10.20
2018-12-23T11:06:52.629Z,10.20
2018-12-23T11:08:59.102Z,10.30
2018-12-23T11:11:01.952Z,10.30
2018-12-23T11:13:06.724Z,10.30
2018-12-23T11:15:11.329Z,10.30
2018-12-23T11:17:15.935Z,10.30
2018-12-23T11:19:20.549Z,10.30
2018-12-23T11:21:25.137Z,10.30
2018-12-23T11:23:29.634Z,10.30
2018-12-23T11:25:34.164Z,10.30
2018-12-23T11:27:38.803Z,10.30
2018-12-23T11:29:43.364Z,10.30
2018-12-23T11:31:47.908Z,10.30
2018-12-23T11:33:52.494Z,10.30
2018-12-23T11:35:57.053Z,10.30
2018-12-23T11:38:01.552Z,10.20
2018-12-23T11:40:07.281Z,10.20
2018-12-23T11:42:11.778Z,10.20
2018-12-23T11:44:16.350Z,10.10
2018-12-23T11:46:20.843Z,10.20
2018-12-23T11:48:25.375Z,10.10
2018-12-23T11:50:30.092Z,10.00
2018-12-23T11:52:34.708Z,10.00
2018-12-23T11:54:39.319Z,10.00
2018-12-23T11:56:43.971Z,10.00
2018-12-23T11:58:48.445Z,9.80
2018-12-23T12:00:53.180Z,9.70
2018-12-23T12:02:57.645Z,9.60
2018-12-23T12:05:02.315Z,9.70
2018-12-23T12:07:06.871Z,9.60
2018-12-23T12:09:11.377Z,9.60
2018-12-23T12:11:15.951Z,9.60
2018-12-23T12:13:20.493Z,9.60
2018-12-23T12:15:25.043Z,9.60
2018-12-23T12:17:29.635Z,9.70
2018-12-23T12:19:34.198Z,9.70
2018-12-23T12:21:38.844Z,9.60
2018-12-23T12:23:43.435Z,9.70
2018-12-23T12:25:48.071Z,9.70
2018-12-23T12:27:52.643Z,9.70
2018-12-23T12:29:57.382Z,9.70
2018-12-23T12:32:02.005Z,9.70
2018-12-23T12:34:06.527Z,9.70
2018-12-23T12:36:11.054Z,9.80
2018-12-23T12:38:15.652Z,9.80
2018-12-23T12:40:20.167Z,9.70
2018-12-23T12:42:24.768Z,9.70
2018-12-23T12:44:29.345Z,9.70
2018-12-23T12:46:33.838Z,9.60
2018-12-23T12:48:38.515Z,9.70
2018-12-23T12:50:43.019Z,9.60
2018-12-23T12:52:47.510Z,9.60
2018-12-23T12:54:52.181Z,9.60
2018-12-23T12:56:56.720Z,9.60
2018-12-23T12:59:01.250Z,9.60
2018-12-23T13:01:05.794Z,9.60
2018-12-23T13:03:10.363Z,9.60
2018-12-23T13:05:14.956Z,9.60
2018-12-23T13:07:19.479Z,9.60
2018-12-23T13:09:24.000Z,9.60
2018-12-23T13:11:28.642Z,9.50
2018-12-23T13:13:33.242Z,9.60
2018-12-23T13:15:37.812Z,9.60
2018-12-23T13:17:42.311Z,9.60
2018-12-23T13:19:46.832Z,9.60
2018-12-23T13:21:51.416Z,9.60
2018-12-23T13:23:56.053Z,9.60
2018-12-23T13:26:01.452Z,9.60
2018-12-23T13:28:06.588Z,9.60
2018-12-23T13:30:13.519Z,9.70
2018-12-23T13:32:18.622Z,9.60
2018-12-23T13:34:24.988Z,9.60
2018-12-23T13:36:30.117Z,9.50
2018-12-23T13:38:35.281Z,9.50
2018-12-23T13:40:49.347Z,9.50
2018-12-23T13:45:37.383Z,9.50
2018-12-23T13:47:55.931Z,9.40
2018-12-23T13:50:09.014Z,9.40
2018-12-23T13:53:29.853Z,9.40
2018-12-23T13:56:17.711Z,9.50
2018-12-23T14:01:12.534Z,9.30
2018-12-23T14:05:30.324Z,9.40
2018-12-23T14:07:50.512Z,9.30
2018-12-23T14:10:34.549Z,9.30
2018-12-23T14:12:40.912Z,9.30
2018-12-23T14:14:46.606Z,9.20
2018-12-23T14:16:52.133Z,9.20
2018-12-23T14:19:01.044Z,9.20
2018-12-23T14:21:07.164Z,9.20
2018-12-23T14:23:14.875Z,9.20
2018-12-23T14:25:20.025Z,9.20
2018-12-23T14:27:26.681Z,9.20
2018-12-23T14:29:34.734Z,9.30
2018-12-23T14:31:40.230Z,9.40
2018-12-23T14:33:45.308Z,9.30
2018-12-23T14:35:50.416Z,9.40
2018-12-23T14:37:55.589Z,9.40
2018-12-23T14:40:00.372Z,9.50
2018-12-23T14:42:04.930Z,9.40
2018-12-23T14:44:09.435Z,9.50
2018-12-23T14:46:14.018Z,9.50
2018-12-23T14:48:18.577Z,9.50
2018-12-23T14:50:23.001Z,9.50
2018-12-23T14:52:27.557Z,9.50
2018-12-23T14:54:32.092Z,9.50
2018-12-23T14:56:36.794Z,9.50
2018-12-23T14:58:41.760Z,9.50
2018-12-23T15:00:46.358Z,9.50
2018-12-23T15:02:50.868Z,9.50
2018-12-23T15:04:55.378Z,9.60
2018-12-23T15:07:00.058Z,9.60
2018-12-23T15:09:06.217Z,9.60
2018-12-23T15:11:10.702Z,9.60
2018-12-23T15:13:15.324Z,9.60
2018-12-23T15:15:19.904Z,9.60
2018-12-23T15:17:24.431Z,9.50
2018-12-23T15:19:29.312Z,9.50
2018-12-23T15:21:33.931Z,9.50
2018-12-23T15:23:38.516Z,9.50
2018-12-23T15:25:43.082Z,9.50
2018-12-23T15:27:47.704Z,9.50
2018-12-23T15:29:52.174Z,9.50
2018-12-23T15:31:56.686Z,9.50
2018-12-23T15:34:01.323Z,9.50
2018-12-23T15:36:05.898Z,9.50
2018-12-23T15:38:10.409Z,9.50
2018-12-23T15:40:14.982Z,9.50
2018-12-23T15:42:19.543Z,9.50
2018-12-23T15:44:24.098Z,9.50
2018-12-23T15:46:28.693Z,9.50
2018-12-23T15:48:33.259Z,9.50
2018-12-23T15:50:37.759Z,9.50
2018-12-23T15:52:42.271Z,9.50
2018-12-23T15:54:46.754Z,9.50
2018-12-23T15:56:51.315Z,9.40
2018-12-23T15:58:55.802Z,9.40
2018-12-23T16:01:00.324Z,9.40
2018-12-23T16:03:05.047Z,9.40
2018-12-23T16:05:09.544Z,9.40
2018-12-23T16:07:14.187Z,9.40
2018-12-23T16:09:18.720Z,9.40
2018-12-23T16:11:23.248Z,9.40
2018-12-23T16:13:27.848Z,9.30
2018-12-23T16:15:32.978Z,9.30
2018-12-23T16:17:37.607Z,9.30
2018-12-23T16:19:42.342Z,9.30
2018-12-23T16:21:46.869Z,9.30
2018-12-23T16:23:51.404Z,9.30
2018-12-23T16:25:55.951Z,9.30
2018-12-23T16:28:00.483Z,9.30
2018-12-23T16:30:05.939Z,9.20
2018-12-23T16:32:10.486Z,9.20
2018-12-23T16:34:15.083Z,9.20
2018-12-23T16:36:19.612Z,9.20
2018-12-23T16:38:24.150Z,9.20
2018-12-23T16:40:28.809Z,9.10
2018-12-23T16:42:33.381Z,9.20
2018-12-23T16:44:37.917Z,9.20
2018-12-23T16:46:42.385Z,9.20
2018-12-23T16:48:46.926Z,9.10
2018-12-23T16:50:51.513Z,9.20
2018-12-23T16:52:56.055Z,9.20
2018-12-23T16:55:00.775Z,9.20
2018-12-23T16:57:05.375Z,9.20
2018-12-23T16:59:09.814Z,9.20
2018-12-23T17:01:14.267Z,9.10
2018-12-23T17:03:18.716Z,9.10
2018-12-23T17:05:23.260Z,9.10
2018-12-23T17:07:27.782Z,9.10
2018-12-23T17:09:32.333Z,9.10
2018-12-23T17:11:36.947Z,9.10
2018-12-23T17:13:41.495Z,9.10
2018-12-23T17:15:45.984Z,9.10
2018-12-23T17:17:50.661Z,9.10
2018-12-23T17:19:55.199Z,9.10
2018-12-23T17:21:59.682Z,9.10
2018-12-23T17:24:04.258Z,9.10
2018-12-23T17:26:09.091Z,9.00
2018-12-23T17:28:13.660Z,9.10
2018-12-23T17:30:19.472Z,9.10
2018-12-23T17:32:25.105Z,9.10
2018-12-23T17:34:30.067Z,9.10
2018-12-23T17:36:34.869Z,9.00
2018-12-23T17:38:39.971Z,9.00
2018-12-23T17:40:44.712Z,9.10
2018-12-23T17:42:49.559Z,9.10
2018-12-23T17:44:54.764Z,9.00
2018-12-23T17:46:59.779Z,9.00
2018-12-23T17:49:05.764Z,9.10
2018-12-23T17:51:11.661Z,9.00
2018-12-23T17:53:16.421Z,9.10
2018-12-23T17:55:21.347Z,9.10
2018-12-23T17:57:26.399Z,9.10
2018-12-23T17:59:31.388Z,9.10
2018-12-23T18:01:37.187Z,9.10
2018-12-23T18:03:42.173Z,9.10
2018-12-23T18:05:47.045Z,9.10
2018-12-23T18:07:51.917Z,9.00
2018-12-23T18:09:56.647Z,9.10
2018-12-23T18:12:01.432Z,9.00
2018-12-23T18:14:06.166Z,9.00
2018-12-23T18:16:11.119Z,9.00
2018-12-23T18:18:16.791Z,9.00
2018-12-23T18:20:22.279Z,9.00
2018-12-23T18:22:27.093Z,9.00
2018-12-23T18:24:31.984Z,9.00
2018-12-23T18:26:44.941Z,9.00
2018-12-23T18:28:42.704Z,8.90
2018-12-23T18:30:47.592Z,9.00
2018-12-23T18:32:52.451Z,9.00
2018-12-23T18:34:57.136Z,8.90
2018-12-23T18:37:01.971Z,8.90
2018-12-23T18:39:08.916Z,8.90
2018-12-23T18:41:13.722Z,8.90
2018-12-23T18:43:18.811Z,8.90
2018-12-23T18:45:23.683Z,8.90
2018-12-23T18:47:28.546Z,8.90
2018-12-23T18:49:33.610Z,8.90
2018-12-23T18:51:40.470Z,8.90
2018-12-23T18:53:45.510Z,8.90
2018-12-23T18:55:51.305Z,8.90
2018-12-23T18:57:56.202Z,9.00
2018-12-23T19:00:01.216Z,9.00
2018-12-23T19:02:10.113Z,9.00
2018-12-23T19:04:15.181Z,8.90
2018-12-23T19:06:19.902Z,8.90
2018-12-23T19:08:34.021Z,9.00
2018-12-23T19:13:54.419Z,8.90
2018-12-23T19:16:22.946Z,8.90
2018-12-23T19:20:47.235Z,8.90
2018-12-23T19:23:08.618Z,8.90
2018-12-23T19:25:23.393Z,8.80
2018-12-23T19:29:43.108Z,8.80
2018-12-23T19:32:04.264Z,8.80
2018-12-23T19:34:33.981Z,8.70
2018-12-23T19:38:47.404Z,8.60
2018-12-23T19:41:11.259Z,8.50
2018-12-23T19:43:56.728Z,8.40
2018-12-23T19:48:18.105Z,8.30
2018-12-23T19:50:38.595Z,8.30
2018-12-23T19:54:55.896Z,8.20
2018-12-23T19:59:44.726Z,8.20
2018-12-23T20:03:06.388Z,8.20
2018-12-23T20:05:33.962Z,8.20
2018-12-23T20:08:00.084Z,8.20
2018-12-23T20:10:17.496Z,8.10
2018-12-23T20:13:02.941Z,8.10
2018-12-23T20:15:37.360Z,8.20
2018-12-23T20:17:52.187Z,8.20
2018-12-23T20:20:13.545Z,8.10
2018-12-23T20:22:55.987Z,8.10
2018-12-23T20:25:26.300Z,8.00
2018-12-23T20:29:45.407Z,8.00
2018-12-23T20:32:05.658Z,7.90
2018-12-23T20:36:24.245Z,8.00
2018-12-23T20:38:44.806Z,7.90
2018-12-23T20:41:31.294Z,7.90
2018-12-23T20:43:46.667Z,7.90
2018-12-23T20:46:37.082Z,7.80
2018-12-23T20:50:58.918Z,7.80
2018-12-23T20:53:34.411Z,7.80
2018-12-23T20:58:02.838Z,7.80
2018-12-23T21:00:22.397Z,7.70
2018-12-23T21:02:39.084Z,7.70
2018-12-23T21:05:01.000Z,7.70
2018-12-23T21:08:19.247Z,7.70
2018-12-23T21:10:34.790Z,7.60
2018-12-23T21:12:56.254Z,7.60
2018-12-23T21:15:11.742Z,7.60
2018-12-23T21:17:44.212Z,7.70
2018-12-23T21:20:14.496Z,7.70
2018-12-23T21:22:34.816Z,7.70
2018-12-23T21:25:11.060Z,7.80
2018-12-23T21:27:22.848Z,7.80
2018-12-23T21:30:09.524Z,7.80
2018-12-23T21:33:00.795Z,7.80
2018-12-23T21:35:29.969Z,7.80
2018-12-23T21:39:51.752Z,7.80
2018-12-23T21:42:55.780Z,7.90
2018-12-23T21:45:16.409Z,7.80
2018-12-23T21:47:33.040Z,7.80
2018-12-23T21:52:03.511Z,7.90
2018-12-23T21:56:20.071Z,7.90
2018-12-23T21:58:39.321Z,7.90
2018-12-23T22:01:12.917Z,7.80
2018-12-23T22:03:28.503Z,7.90
2018-12-23T22:05:47.109Z,7.90
2018-12-23T22:10:24.080Z,7.80
2018-12-23T22:12:40.117Z,7.80
2018-12-23T22:14:45.204Z,7.80
2018-12-23T22:16:53.561Z,7.80
2018-12-23T22:18:58.569Z,7.80
2018-12-23T22:21:04.750Z,7.80
2018-12-23T22:23:12.327Z,7.70
2018-12-23T22:25:19.556Z,7.80
2018-12-23T22:27:26.342Z,7.80
2018-12-23T22:29:31.982Z,7.70
2018-12-23T22:31:37.925Z,7.70
2018-12-23T22:33:42.555Z,7.60
2018-12-23T22:35:47.039Z,7.60
2018-12-23T22:37:51.589Z,7.60
2018-12-23T22:39:56.204Z,7.50
2018-12-23T22:42:00.807Z,7.40
2018-12-23T22:44:05.573Z,7.40
2018-12-23T22:46:10.096Z,7.30
2018-12-23T22:48:14.640Z,7.20
2018-12-23T22:50:20.288Z,7.20
2018-12-23T22:52:24.959Z,7.20
2018-12-23T22:54:29.571Z,7.10
2018-12-23T22:56:34.122Z,7.00
2018-12-23T22:58:38.703Z,7.00
2018-12-23T23:00:43.283Z,7.00
2018-12-23T23:02:47.846Z,7.00
2018-12-23T23:04:52.812Z,7.00
2018-12-23T23:06:57.404Z,7.00
2018-12-23T23:09:02.022Z,7.00
2018-12-23T23:11:06.687Z,7.00
2018-12-23T23:13:18.479Z,6.90
2018-12-23T23:15:15.879Z,6.90
2018-12-23T23:17:20.534Z,6.80
2018-12-23T23:19:24.957Z,6.80
2018-12-23T23:21:29.689Z,6.80
2018-12-23T23:23:34.172Z,6.80
2018-12-23T23:25:38.645Z,6.80
2018-12-23T23:27:43.189Z,6.80
2018-12-23T23:29:47.667Z,6.80
2018-12-23T23:31:52.245Z,6.80
2018-12-23T23:33:56.670Z,6.80
2018-12-23T23:36:01.247Z,6.80
2018-12-23T23:38:05.768Z,6.80
2018-12-23T23:40:10.277Z,6.80
2018-12-23T23:42:14.715Z,6.80
2018-12-23T23:44:19.265Z,6.80
2018-12-23T23:46:23.808Z,6.70
2018-12-23T23:48:28.442Z,6.70
2018-12-23T23:50:32.963Z,6.80
2018-12-23T23:52:37.434Z,6.80
2018-12-23T23:54:42.012Z,6.80
2018-12-23T23:56:46.515Z,6.70
2018-12-23T23:58:51.123Z,6.80
